EFKU

Kuopio Airport

Kuopio / Siilinjärvi, Finland
METAR EFKU 191650Z AUTO 26009KT CAVOK 20/07 Q1005
Observed Flight Rules
Aug-19 @ 16:50 UTC (22 minutes ago) Visual Flight Rules
Wind Visibility Clouds
260° at 9 knots 10,000+ meters
  • Clear skies
Temperatures Readings
Current 20°C / 68°F
Dewpoint 7°C / 45°F
Humidity 43%
Altimeter 29.68" Hg
Pressure 1005 hPa
Elevation 102
METAR EFKU 191650Z AUTO 26009KT CAVOK 20/07 Q1005
Observed Flight Rules
Aug-19 @ 16:50 UTC
(22 minutes ago)
VFR
Wind Visibility
260° at 9 knots 10,000+ meters
Clouds
  • Clear skies
Temperature Dewpoint
20°C / 68°F 7°C / 45°F
Humidity Altimeter Pressure
43% 29.68" Hg 1005 hPa